Terminal Aerodrome Forecast
Issued by NWS Des Moines, IA

Home | Current Version | Previous Version | Text Only | Print | Product List | Glossary On
Versions: 1 2 3 4 5 6 7 8 9 10 11 12 13 14 15 16 17 18 19 20 21 22 23 24 25 26 27 28 29
000
FTUS43 KDMX 272333
TAFALO
TAF
KALO 272333Z 2800/2824 11005KT P6SM SCT035 BKN180
     FM280600 12006KT P6SM SCT015 BKN035
     FM280800 12007KT 5SM BR VCSH OVC020
     FM281200 13010KT 3SM -TSRA BR SCT007 OVC015CB
     FM281700 14011KT 6SM BR VCSH SCT015 OVC030=

USA.gov is the U.S. government's official web portal to all federal, state and local government web resources and services.